createdAt,value
2018-12-21T00:01:30.012Z,5.77
2018-12-21T00:03:58.986Z,5.77
2018-12-21T00:06:28.103Z,5.75
2018-12-21T00:08:57.134Z,5.74
2018-12-21T00:11:26.269Z,5.74
2018-12-21T00:13:55.441Z,5.75
2018-12-21T00:16:24.460Z,5.75
2018-12-21T00:18:55.003Z,5.76
2018-12-21T00:21:24.062Z,5.75
2018-12-21T00:23:53.151Z,5.74
2018-12-21T00:26:22.221Z,5.72
2018-12-21T00:28:51.285Z,5.74
2018-12-21T00:31:25.679Z,5.75
2018-12-21T00:34:00.024Z,5.77
2018-12-21T00:36:34.483Z,5.80
2018-12-21T00:39:09.794Z,5.80
2018-12-21T00:41:38.091Z,5.77
2018-12-21T00:44:26.377Z,5.77
2018-12-21T00:46:58.475Z,5.78
2018-12-21T00:49:29.095Z,5.78
2018-12-21T00:51:58.370Z,5.79
2018-12-21T00:54:27.358Z,5.79
2018-12-21T00:56:56.339Z,5.80
2018-12-21T00:59:25.531Z,5.79
2018-12-21T01:01:55.912Z,5.79
2018-12-21T01:04:25.121Z,5.79
2018-12-21T01:06:54.175Z,5.78
2018-12-21T01:09:23.393Z,5.80
2018-12-21T01:11:52.468Z,5.82
2018-12-21T01:14:21.465Z,5.81
2018-12-21T01:16:50.529Z,5.80
2018-12-21T01:19:19.637Z,5.85
2018-12-21T01:21:48.642Z,5.87
2018-12-21T01:24:17.839Z,5.88
2018-12-21T01:26:46.919Z,5.88
2018-12-21T01:29:16.213Z,5.86
2018-12-21T01:31:45.343Z,5.85
2018-12-21T01:34:14.358Z,5.86
2018-12-21T01:36:43.571Z,5.87
2018-12-21T01:39:13.177Z,5.89
2018-12-21T01:41:42.287Z,5.88
2018-12-21T01:44:12.426Z,5.86
2018-12-21T01:46:41.708Z,5.87
2018-12-21T01:49:10.729Z,5.86
2018-12-21T01:51:46.918Z,5.87
2018-12-21T01:54:11.784Z,5.89
2018-12-21T01:56:40.887Z,5.89
2018-12-21T01:59:09.941Z,5.89
2018-12-21T02:01:40.121Z,5.89
2018-12-21T02:04:09.342Z,5.89
2018-12-21T02:06:38.359Z,5.89
2018-12-21T02:09:07.967Z,5.88
2018-12-21T02:11:37.270Z,5.88
2018-12-21T02:14:06.334Z,5.87
2018-12-21T02:16:35.841Z,5.86
2018-12-21T02:19:05.023Z,5.84
2018-12-21T02:21:34.168Z,5.86
2018-12-21T02:24:03.262Z,5.85
2018-12-21T02:26:32.323Z,5.85
2018-12-21T02:29:01.323Z,5.83
2018-12-21T02:31:32.019Z,5.83
2018-12-21T02:34:01.101Z,5.81
2018-12-21T02:36:30.269Z,5.83
2018-12-21T02:38:59.296Z,5.80
2018-12-21T02:41:28.411Z,5.79
2018-12-21T02:43:57.595Z,5.80
2018-12-21T02:46:26.564Z,5.80
2018-12-21T02:48:55.680Z,5.81
2018-12-21T02:51:24.819Z,5.81
2018-12-21T02:53:53.798Z,5.81
2018-12-21T02:56:22.881Z,5.80
2018-12-21T02:58:51.895Z,5.80
2018-12-21T03:01:21.010Z,5.80
2018-12-21T03:03:50.196Z,5.81
2018-12-21T03:06:19.334Z,5.79
2018-12-21T03:08:48.438Z,5.76
2018-12-21T03:11:17.478Z,5.75
2018-12-21T03:13:46.570Z,5.76
2018-12-21T03:16:15.671Z,5.76
2018-12-21T03:18:44.825Z,5.76
2018-12-21T03:21:14.142Z,5.75
2018-12-21T03:23:43.243Z,5.72
2018-12-21T03:26:13.382Z,5.74
2018-12-21T03:28:42.497Z,5.72
2018-12-21T03:31:11.518Z,5.74
2018-12-21T03:33:40.481Z,5.73
2018-12-21T03:36:09.573Z,5.74
2018-12-21T03:38:38.706Z,5.74
2018-12-21T03:41:07.852Z,5.74
2018-12-21T03:43:36.915Z,5.74
2018-12-21T03:46:06.180Z,5.73
2018-12-21T03:48:37.245Z,5.73
2018-12-21T03:51:06.302Z,5.73
2018-12-21T03:53:35.369Z,5.70
2018-12-21T03:56:04.528Z,5.67
2018-12-21T03:58:33.701Z,5.65
2018-12-21T04:01:02.671Z,5.62
2018-12-21T04:03:34.546Z,5.61
2018-12-21T04:06:03.710Z,5.59
2018-12-21T04:08:33.754Z,5.59
2018-12-21T04:11:03.122Z,5.59
2018-12-21T04:13:32.292Z,5.57
2018-12-21T04:16:01.283Z,5.50
2018-12-21T04:18:30.343Z,5.52
2018-12-21T04:20:59.316Z,5.47
2018-12-21T04:23:28.375Z,5.42
2018-12-21T04:25:57.372Z,5.41
2018-12-21T04:28:26.472Z,5.41
2018-12-21T04:30:55.556Z,5.32
2018-12-21T04:33:24.552Z,5.31
2018-12-21T04:35:53.586Z,5.27
2018-12-21T04:38:22.642Z,5.24
2018-12-21T04:40:51.637Z,5.21
2018-12-21T04:43:20.666Z,5.17
2018-12-21T04:45:49.755Z,5.10
2018-12-21T04:48:18.805Z,4.97
2018-12-21T04:50:47.804Z,4.97
2018-12-21T04:53:16.854Z,4.95
2018-12-21T04:55:46.023Z,4.91
2018-12-21T04:58:15.235Z,4.96
2018-12-21T05:00:44.281Z,5.00
2018-12-21T05:03:14.698Z,5.03
2018-12-21T05:05:43.927Z,5.10
2018-12-21T05:08:13.427Z,5.09
2018-12-21T05:10:42.509Z,5.04
2018-12-21T05:13:11.472Z,5.07
2018-12-21T05:15:40.489Z,5.12
2018-12-21T05:18:09.479Z,5.16
2018-12-21T05:20:38.548Z,5.16
2018-12-21T05:23:07.545Z,5.15
2018-12-21T05:25:36.585Z,5.16
2018-12-21T05:28:05.578Z,5.19
2018-12-21T05:30:34.658Z,5.20
2018-12-21T05:33:03.820Z,5.22
2018-12-21T05:35:32.827Z,5.21
2018-12-21T05:38:01.905Z,5.15
2018-12-21T05:40:30.973Z,5.16
2018-12-21T05:42:59.952Z,5.18
2018-12-21T05:45:28.934Z,5.19
2018-12-21T05:47:58.014Z,5.19
2018-12-21T05:50:27.196Z,5.20
2018-12-21T05:53:00.714Z,5.22
2018-12-21T05:55:27.347Z,5.21
2018-12-21T05:57:56.320Z,5.21
2018-12-21T06:00:25.467Z,5.22
2018-12-21T06:02:54.523Z,5.23
2018-12-21T06:05:23.498Z,5.24
2018-12-21T06:07:52.504Z,5.24
2018-12-21T06:10:21.670Z,5.25
2018-12-21T06:12:50.680Z,5.26
2018-12-21T06:15:19.691Z,5.26
2018-12-21T06:17:48.670Z,5.27
2018-12-21T06:20:17.877Z,5.28
2018-12-21T06:22:46.921Z,5.28
2018-12-21T06:25:15.994Z,5.29
2018-12-21T06:27:45.085Z,5.30
2018-12-21T06:30:14.113Z,5.31
2018-12-21T06:32:43.092Z,5.33
2018-12-21T06:35:12.181Z,5.33
2018-12-21T06:37:41.448Z,5.36
2018-12-21T06:40:10.445Z,5.38
2018-12-21T06:42:39.453Z,5.37
2018-12-21T06:45:08.564Z,5.38
2018-12-21T06:47:37.622Z,5.39
2018-12-21T06:50:07.337Z,5.38
2018-12-21T06:52:36.306Z,5.39
2018-12-21T06:55:05.884Z,5.39
2018-12-21T06:57:34.969Z,5.40
2018-12-21T07:00:04.324Z,5.39
2018-12-21T07:02:33.283Z,5.40
2018-12-21T07:05:02.463Z,5.38
2018-12-21T07:07:31.422Z,5.39
2018-12-21T07:10:00.397Z,5.40
2018-12-21T07:12:29.471Z,5.41
2018-12-21T07:14:58.452Z,5.41
2018-12-21T07:17:28.111Z,5.41
2018-12-21T07:19:57.988Z,5.41
2018-12-21T07:22:27.055Z,5.41
2018-12-21T07:24:56.126Z,5.42
2018-12-21T07:27:25.398Z,5.41
2018-12-21T07:29:54.391Z,5.40
2018-12-21T07:32:23.391Z,5.41
2018-12-21T07:34:52.371Z,5.40
2018-12-21T07:37:21.373Z,5.42
2018-12-21T07:39:50.377Z,5.41
2018-12-21T07:42:19.427Z,5.41
2018-12-21T07:44:48.418Z,5.41
2018-12-21T07:47:17.532Z,5.42
2018-12-21T07:49:46.528Z,5.40
2018-12-21T07:52:15.550Z,5.41
2018-12-21T07:54:44.584Z,5.41
2018-12-21T07:57:13.613Z,5.41
2018-12-21T07:59:42.609Z,5.42
2018-12-21T08:02:11.813Z,5.44
2018-12-21T08:04:40.800Z,5.43
2018-12-21T08:07:09.850Z,5.45
2018-12-21T08:09:38.969Z,5.44
2018-12-21T08:12:08.091Z,5.45
2018-12-21T08:14:37.091Z,5.45
2018-12-21T08:17:06.185Z,5.45
2018-12-21T08:19:35.257Z,5.46
2018-12-21T08:22:04.237Z,5.45
2018-12-21T08:24:33.260Z,5.46
2018-12-21T08:27:02.363Z,5.47
2018-12-21T08:29:31.522Z,5.49
2018-12-21T08:32:00.535Z,5.49
2018-12-21T08:34:29.581Z,5.47
2018-12-21T08:36:58.784Z,5.48
2018-12-21T08:39:27.873Z,5.48
2018-12-21T08:41:56.950Z,5.49
2018-12-21T08:44:25.967Z,5.50
2018-12-21T08:46:55.053Z,5.52
2018-12-21T08:49:24.209Z,5.52
2018-12-21T08:51:53.286Z,5.53
2018-12-21T08:54:22.376Z,5.55
2018-12-21T08:56:51.458Z,5.54
2018-12-21T08:59:21.009Z,5.53
2018-12-21T09:01:50.086Z,5.53
2018-12-21T09:04:19.197Z,5.54
2018-12-21T09:06:48.268Z,5.53
2018-12-21T09:09:17.372Z,5.53
2018-12-21T09:11:48.046Z,5.56
2018-12-21T09:14:17.206Z,5.57
2018-12-21T09:16:46.213Z,5.67
2018-12-21T09:19:15.282Z,5.67
2018-12-21T09:21:44.341Z,5.73
2018-12-21T09:24:13.410Z,5.66
2018-12-21T09:26:42.488Z,5.66
2018-12-21T09:29:11.554Z,5.65
2018-12-21T09:31:40.631Z,5.72
2018-12-21T09:34:09.654Z,5.79
2018-12-21T09:36:38.691Z,5.80
2018-12-21T09:39:08.265Z,5.82
2018-12-21T09:41:39.113Z,5.79
2018-12-21T09:44:08.153Z,5.75
2018-12-21T09:46:37.411Z,5.73
2018-12-21T09:49:06.434Z,5.73
2018-12-21T09:51:36.500Z,5.69
2018-12-21T09:54:09.835Z,5.79
2018-12-21T09:56:37.500Z,5.78
2018-12-21T09:59:08.029Z,5.75
2018-12-21T10:01:37.276Z,5.81
2018-12-21T10:04:07.517Z,5.87
2018-12-21T10:06:37.138Z,5.89
2018-12-21T10:09:07.760Z,5.94
2018-12-21T10:11:36.765Z,6.02
2018-12-21T10:14:05.841Z,6.00
2018-12-21T10:16:34.854Z,6.03
2018-12-21T10:19:04.088Z,6.09
2018-12-21T10:21:33.137Z,6.08
2018-12-21T10:24:02.204Z,6.06
2018-12-21T10:26:31.314Z,6.06
2018-12-21T10:29:00.294Z,6.06
2018-12-21T10:31:29.379Z,6.08
2018-12-21T10:33:58.390Z,6.12
2018-12-21T10:36:27.470Z,6.24
2018-12-21T10:38:56.549Z,6.24
2018-12-21T10:41:25.643Z,6.26
2018-12-21T10:43:55.615Z,6.26
2018-12-21T10:46:24.670Z,6.25
2018-12-21T10:48:53.736Z,6.21
2018-12-21T10:51:22.808Z,6.14
2018-12-21T10:56:32.074Z,6.07
2018-12-21T10:59:01.175Z,6.05
2018-12-21T11:01:30.419Z,6.04
2018-12-21T11:03:59.447Z,6.06
2018-12-21T11:06:28.921Z,6.07
2018-12-21T11:08:57.955Z,6.10
2018-12-21T11:11:27.010Z,6.10
2018-12-21T11:13:56.081Z,6.13
2018-12-21T11:16:25.078Z,6.12
2018-12-21T11:18:54.094Z,6.13
2018-12-21T11:21:23.104Z,6.10
2018-12-21T11:23:52.070Z,6.11
2018-12-21T11:26:21.199Z,6.12
2018-12-21T11:28:50.330Z,6.11
2018-12-21T11:31:19.515Z,6.10
2018-12-21T11:33:48.716Z,6.11
2018-12-21T11:36:19.847Z,6.12
2018-12-21T11:38:49.137Z,6.12
2018-12-21T11:41:18.697Z,6.13
2018-12-21T11:43:47.830Z,6.14
2018-12-21T11:46:17.025Z,6.14
2018-12-21T11:48:46.097Z,6.15
2018-12-21T11:51:15.235Z,6.15
2018-12-21T11:53:44.247Z,6.17
2018-12-21T11:56:13.342Z,6.15
2018-12-21T11:58:42.479Z,6.15
2018-12-21T12:01:11.472Z,6.15
2018-12-21T12:03:40.602Z,6.15
2018-12-21T12:06:09.913Z,6.14
2018-12-21T12:08:39.150Z,6.16
2018-12-21T12:11:08.274Z,6.18
2018-12-21T12:13:37.256Z,6.19
2018-12-21T12:16:06.254Z,6.25
2018-12-21T12:18:35.542Z,6.28
2018-12-21T12:21:04.708Z,6.32
2018-12-21T12:23:33.708Z,6.31
2018-12-21T12:26:02.800Z,6.25
2018-12-21T12:28:31.967Z,6.23
2018-12-21T12:31:01.035Z,6.26
2018-12-21T12:33:30.794Z,6.24
2018-12-21T12:35:59.849Z,6.24
2018-12-21T12:38:29.522Z,6.20
2018-12-21T12:41:06.387Z,6.15
2018-12-21T12:43:30.194Z,6.16
2018-12-21T12:45:59.266Z,6.15
2018-12-21T12:48:28.336Z,6.12
2018-12-21T12:50:57.405Z,6.11
2018-12-21T12:53:26.414Z,6.09
2018-12-21T12:55:55.474Z,6.11
2018-12-21T12:58:24.453Z,6.12
2018-12-21T13:00:53.616Z,6.14
2018-12-21T13:03:22.682Z,6.13
2018-12-21T13:05:51.726Z,6.11
2018-12-21T13:08:21.733Z,6.12
2018-12-21T13:10:51.706Z,6.13
2018-12-21T13:13:20.718Z,6.14
2018-12-21T13:15:49.707Z,6.15
2018-12-21T13:18:22.239Z,6.20
2018-12-21T13:20:51.299Z,6.15
2018-12-21T13:23:20.561Z,6.14
2018-12-21T13:25:49.907Z,6.14
2018-12-21T13:28:18.933Z,6.15
2018-12-21T13:30:47.998Z,6.15
2018-12-21T13:33:17.021Z,6.16
2018-12-21T13:35:46.079Z,6.14
2018-12-21T13:38:15.130Z,6.17
2018-12-21T13:40:44.107Z,6.12
2018-12-21T13:43:13.175Z,6.12
2018-12-21T13:45:42.768Z,6.09
2018-12-21T13:48:11.865Z,6.09
2018-12-21T13:50:41.233Z,6.06
2018-12-21T13:53:10.419Z,6.06
2018-12-21T13:55:39.505Z,6.06
2018-12-21T13:58:09.062Z,6.05
2018-12-21T14:00:38.370Z,6.05
2018-12-21T14:03:07.483Z,6.04
2018-12-21T14:05:36.672Z,6.05
2018-12-21T14:08:05.944Z,6.03
2018-12-21T14:10:35.190Z,6.04
2018-12-21T16:05:54.505Z,-141.93
2018-12-21T16:13:20.867Z,-141.93
2018-12-21T18:38:41.178Z,-141.93
2018-12-21T18:43:58.694Z,-141.93
2018-12-21T18:46:29.169Z,-141.93
2018-12-21T18:50:26.596Z,-141.93
2018-12-21T18:56:20.863Z,-141.93
